Mo Valley, Iowa
Current Conditions -  °F | °C
As of 7:15 PM on Saturday 22 Nov 2014 (Local Time) from KBTA Reporting Station
Overcast Overcast  
Wind Chill: 55°   Ceiling: 1100
Heat Index: 55°   Visibility: 10mi
Dew Point: 51°   Wind: 16mph
Humidity: 88%   Direction: 180°S
Pressure: 29.59"   Gusts: NA
Location:  41.5746°N, 95.9326°W
Report Text: KBTA 230115Z AUTO 18014KT 10SM OVC011 13/11 A2959 RMK AO2 T01250105
Loading
Personal Weather Stations






























Interactive Weather Map New forecast layout! Learn more

10-Day Weather Forecast

Advertisements
Track Severe Weather on mobile